createdAt,value
2022-10-17T00:01:24.126Z,100861.28
2022-10-17T00:03:50.749Z,100927.53
2022-10-17T00:06:17.411Z,101175.97
2022-10-17T00:08:44.562Z,101063.41
2022-10-17T00:11:20.329Z,101038.78
2022-10-17T00:13:49.606Z,101171.84
2022-10-17T00:16:24.065Z,101155.50
2022-10-17T00:18:52.284Z,100714.94
2022-10-17T00:21:20.815Z,101063.75
2022-10-17T00:23:47.899Z,101115.13
2022-10-17T00:26:15.221Z,101168.47
2022-10-17T00:28:45.922Z,100997.19
2022-10-17T00:31:12.643Z,100916.50
2022-10-17T00:33:40.528Z,100806.00
2022-10-17T00:36:19.508Z,100929.25
2022-10-17T00:38:49.147Z,101176.66
2022-10-17T00:41:18.216Z,101176.91
2022-10-17T00:43:51.640Z,101106.63
2022-10-17T00:46:19.035Z,100877.22
2022-10-17T00:48:46.588Z,100829.41
2022-10-17T00:51:15.533Z,101082.03
2022-10-17T00:53:42.410Z,101115.72
2022-10-17T00:56:09.246Z,100860.91
2022-10-17T00:58:36.741Z,100851.44
2022-10-17T01:01:05.241Z,101169.06
2022-10-17T01:03:31.926Z,101056.84
2022-10-17T01:05:59.000Z,101179.88
2022-10-17T01:08:25.692Z,101130.66
2022-10-17T01:11:13.508Z,101180.94
2022-10-17T01:13:52.237Z,101023.94
2022-10-17T01:16:28.664Z,101123.75
2022-10-17T01:19:13.684Z,101179.44
2022-10-17T01:22:01.083Z,101179.88
2022-10-17T01:24:48.508Z,101075.78
2022-10-17T01:27:30.551Z,101172.88
2022-10-17T01:30:06.952Z,101173.78
2022-10-17T01:32:53.520Z,101090.63
2022-10-17T01:36:08.907Z,101126.63
2022-10-17T01:39:13.916Z,101073.94
2022-10-17T01:41:46.413Z,101162.75
2022-10-17T01:44:55.656Z,101160.56
2022-10-17T01:47:28.991Z,100819.16
2022-10-17T01:50:03.523Z,100823.84
2022-10-17T01:52:42.058Z,101121.47
2022-10-17T01:55:14.489Z,101083.97
2022-10-17T01:57:46.875Z,101066.28
2022-10-17T02:00:19.509Z,101157.00
2022-10-17T02:02:57.355Z,100829.69
2022-10-17T02:05:29.298Z,101022.03
2022-10-17T02:07:56.007Z,101047.41
2022-10-17T02:10:53.467Z,101155.28
2022-10-17T02:13:35.980Z,101024.78
2022-10-17T02:16:13.632Z,101150.56
2022-10-17T02:19:03.750Z,100921.84
2022-10-17T02:21:50.331Z,100970.69
2022-10-17T02:24:42.436Z,101141.59
2022-10-17T02:27:20.589Z,100871.56
2022-10-17T02:29:49.955Z,101147.34
2022-10-17T02:32:26.354Z,100769.41
2022-10-17T02:34:56.793Z,100900.22
2022-10-17T02:37:28.613Z,101150.66
2022-10-17T02:39:59.229Z,100924.47
2022-10-17T02:42:28.471Z,101006.34
2022-10-17T02:45:00.609Z,101124.34
2022-10-17T02:47:40.829Z,101145.03
2022-10-17T02:50:07.878Z,101079.59
2022-10-17T02:52:48.433Z,100923.31
2022-10-17T02:55:24.745Z,101144.22
2022-10-17T02:58:00.514Z,101127.31
2022-10-17T03:00:28.802Z,101000.41
2022-10-17T03:02:56.361Z,100778.06
2022-10-17T03:05:26.540Z,101142.97
2022-10-17T03:07:54.505Z,101054.66
2022-10-17T03:10:22.327Z,100854.34
2022-10-17T03:12:49.244Z,101141.50
2022-10-17T03:15:16.011Z,101011.22
2022-10-17T03:17:43.043Z,101081.69
2022-10-17T03:20:10.555Z,100844.00
2022-10-17T03:22:37.313Z,101157.00
2022-10-17T03:25:05.626Z,101153.78
2022-10-17T03:27:34.993Z,100912.00
2022-10-17T03:30:01.713Z,101099.84
2022-10-17T03:32:30.024Z,101055.00
2022-10-17T03:34:58.179Z,101020.75
2022-10-17T03:37:24.877Z,100765.03
2022-10-17T03:39:51.574Z,100776.28
2022-10-17T03:42:18.331Z,101173.91
2022-10-17T03:44:45.068Z,100997.63
2022-10-17T03:47:14.071Z,101141.25
2022-10-17T03:49:42.973Z,100957.13
2022-10-17T03:52:14.099Z,100771.81
2022-10-17T03:54:41.601Z,101063.16
2022-10-17T03:57:08.334Z,100885.06
2022-10-17T03:59:35.647Z,101171.84
2022-10-17T04:02:07.481Z,101057.41
2022-10-17T04:04:34.537Z,100876.13
2022-10-17T04:07:01.224Z,100925.97
2022-10-17T04:09:30.450Z,100841.28
2022-10-17T04:12:03.606Z,100871.97
2022-10-17T04:14:32.065Z,100907.00
2022-10-17T04:16:59.044Z,100942.75
2022-10-17T04:19:27.204Z,100860.25
2022-10-17T04:21:54.443Z,101051.31
2022-10-17T04:24:21.752Z,100893.94
2022-10-17T04:26:55.019Z,100970.25
2022-10-17T04:29:25.642Z,100868.31
2022-10-17T04:31:56.386Z,101055.78
2022-10-17T04:34:41.788Z,101173.34
2022-10-17T04:37:10.344Z,101044.63
2022-10-17T04:39:37.529Z,101066.13
2022-10-17T04:42:04.221Z,100928.72
2022-10-17T04:44:32.230Z,101194.41
2022-10-17T04:46:59.200Z,101012.28
2022-10-17T04:49:26.718Z,100875.38
2022-10-17T04:51:58.386Z,100786.81
2022-10-17T04:54:40.163Z,100888.06
2022-10-17T04:57:09.483Z,101074.66
2022-10-17T04:59:36.557Z,100747.47
2022-10-17T05:02:42.308Z,101195.53
2022-10-17T05:05:09.279Z,100994.25
2022-10-17T05:07:40.692Z,100973.34
2022-10-17T05:10:13.563Z,100766.28
2022-10-17T05:12:44.038Z,101124.91
2022-10-17T05:15:10.948Z,101052.22
2022-10-17T05:17:39.792Z,101142.25
2022-10-17T05:20:07.867Z,101089.56
2022-10-17T05:22:38.343Z,100990.34
2022-10-17T05:25:08.680Z,101134.91
2022-10-17T05:27:35.672Z,101063.16
2022-10-17T05:30:03.201Z,100898.16
2022-10-17T05:32:33.336Z,101090.88
2022-10-17T05:34:59.944Z,100876.78
2022-10-17T05:37:28.883Z,100993.69
2022-10-17T05:39:56.732Z,101174.94
2022-10-17T05:42:24.389Z,100911.94
2022-10-17T05:44:51.090Z,101025.78
2022-10-17T05:47:19.514Z,100913.81
2022-10-17T05:49:51.553Z,100918.03
2022-10-17T05:52:23.574Z,100967.25
2022-10-17T05:55:04.689Z,100946.56
2022-10-17T05:57:32.534Z,101144.56
2022-10-17T06:00:00.855Z,100947.13
2022-10-17T06:02:40.832Z,100939.34
2022-10-17T06:05:08.470Z,101181.72
2022-10-17T06:07:36.026Z,101204.72
2022-10-17T06:10:04.411Z,101122.38
2022-10-17T06:12:31.470Z,101209.78
2022-10-17T06:14:59.268Z,101044.44
2022-10-17T06:17:26.680Z,101063.28
2022-10-17T06:19:54.842Z,101037.88
2022-10-17T06:22:24.257Z,101050.53
2022-10-17T06:24:53.358Z,101216.09
2022-10-17T06:27:20.763Z,100986.75
2022-10-17T06:29:48.371Z,100936.88
2022-10-17T06:32:15.382Z,101149.00
2022-10-17T06:34:45.615Z,101212.81
2022-10-17T06:37:12.282Z,101158.41
2022-10-17T06:39:40.599Z,101243.47
2022-10-17T06:42:13.104Z,101127.34
2022-10-17T06:45:07.186Z,101267.28
2022-10-17T06:47:42.653Z,101145.03
2022-10-17T06:50:38.629Z,101127.56
2022-10-17T06:53:12.887Z,101132.13
2022-10-17T06:55:53.601Z,101263.81
2022-10-17T06:58:39.601Z,101264.94
2022-10-17T07:01:13.749Z,101021.88
2022-10-17T07:03:43.595Z,101071.22
2022-10-17T07:06:11.651Z,101208.50
2022-10-17T07:08:45.634Z,101288.72
2022-10-17T07:11:21.195Z,101289.25
2022-10-17T07:13:51.381Z,101068.13
2022-10-17T07:16:18.376Z,101133.81
2022-10-17T07:18:50.818Z,101034.63
2022-10-17T07:21:18.801Z,101087.13
2022-10-17T07:23:45.664Z,101061.59
2022-10-17T07:26:15.541Z,101017.00
2022-10-17T07:28:44.488Z,101003.13
2022-10-17T07:31:23.500Z,101158.88
2022-10-17T07:33:51.847Z,101045.22
2022-10-17T07:36:19.160Z,100980.19
2022-10-17T07:38:46.847Z,101055.44
2022-10-17T07:41:17.889Z,101230.38
2022-10-17T07:43:48.262Z,100989.47
2022-10-17T07:46:18.620Z,101060.94
2022-10-17T07:48:46.101Z,101028.16
2022-10-17T07:51:12.872Z,101075.81
2022-10-17T07:53:47.970Z,101079.47
2022-10-17T07:56:15.879Z,101104.63
2022-10-17T07:58:42.475Z,101214.97
2022-10-17T08:01:15.705Z,101229.53
2022-10-17T08:03:48.501Z,101214.72
2022-10-17T08:06:15.452Z,101117.06
2022-10-17T08:08:42.799Z,101309.88
2022-10-17T08:11:14.925Z,101250.38
2022-10-17T08:13:44.934Z,100880.72
2022-10-17T08:16:13.077Z,100801.84
2022-10-17T08:18:41.231Z,100958.03
2022-10-17T08:21:08.676Z,101271.91
2022-10-17T08:23:36.501Z,101283.41
2022-10-17T08:26:05.713Z,101050.28
2022-10-17T08:28:36.931Z,101094.03
2022-10-17T08:31:05.632Z,101162.03
2022-10-17T08:33:33.336Z,101099.16
2022-10-17T08:36:02.229Z,101014.50
2022-10-17T08:38:34.667Z,101365.84
2022-10-17T08:41:05.638Z,101053.97
2022-10-17T08:43:55.425Z,101132.09
2022-10-17T08:46:22.729Z,101229.41
2022-10-17T08:48:51.723Z,101146.84
2022-10-17T08:51:26.530Z,101075.78
2022-10-17T08:54:00.720Z,101386.25
2022-10-17T08:56:48.065Z,101087.06
2022-10-17T08:59:19.358Z,101395.19
2022-10-17T09:02:18.242Z,101398.41
2022-10-17T09:04:58.941Z,101399.63
2022-10-17T09:07:44.659Z,101152.44
2022-10-17T09:10:20.448Z,101393.06
2022-10-17T09:13:08.667Z,101396.00
2022-10-17T09:15:50.807Z,101404.69
2022-10-17T09:18:34.607Z,101151.66
2022-10-17T09:21:25.897Z,101389.16
2022-10-17T09:24:08.776Z,101212.06
2022-10-17T09:26:39.320Z,101388.84
2022-10-17T09:29:15.720Z,101109.66
2022-10-17T09:31:48.714Z,101200.44
2022-10-17T09:34:16.197Z,101412.28
2022-10-17T09:36:43.983Z,101170.28
2022-10-17T09:39:20.593Z,101159.59
2022-10-17T09:41:53.829Z,101425.28
2022-10-17T09:44:35.676Z,101331.41
2022-10-17T09:47:41.214Z,101331.75
2022-10-17T09:50:25.409Z,101282.56
2022-10-17T09:52:53.952Z,101423.03
2022-10-17T09:55:34.696Z,101197.47
2022-10-17T09:58:04.327Z,101049.47
2022-10-17T10:00:43.725Z,101428.31
2022-10-17T10:03:25.033Z,101241.91
2022-10-17T10:06:05.893Z,101439.28
2022-10-17T10:08:48.858Z,101434.53
2022-10-17T10:11:17.727Z,101164.34
2022-10-17T10:13:46.320Z,101340.19
2022-10-17T10:16:24.214Z,101367.19
2022-10-17T10:18:52.396Z,101330.03
2022-10-17T10:21:21.943Z,101433.91
2022-10-17T10:24:03.923Z,101440.81
2022-10-17T10:26:38.726Z,101235.75
2022-10-17T10:29:32.480Z,101325.50
2022-10-17T10:32:12.851Z,101265.41
2022-10-17T10:35:02.112Z,101181.00
2022-10-17T10:37:34.022Z,101327.63
2022-10-17T10:40:28.545Z,101445.44
2022-10-17T10:43:03.983Z,101098.56
2022-10-17T10:45:54.117Z,101470.63
2022-10-17T10:48:26.751Z,101471.44
2022-10-17T10:51:06.142Z,101442.56
2022-10-17T10:53:46.786Z,101435.34
2022-10-17T10:56:21.376Z,101487.72
2022-10-17T10:58:59.065Z,101410.75
2022-10-17T11:01:39.535Z,101412.09
2022-10-17T11:04:18.845Z,101477.56
2022-10-17T11:06:50.101Z,101406.75
2022-10-17T11:09:43.102Z,101372.78
2022-10-17T11:12:46.717Z,101348.22
2022-10-17T11:15:20.883Z,101120.72
2022-10-17T11:18:10.455Z,101389.88
2022-10-17T11:20:42.230Z,101070.38
2022-10-17T11:23:28.964Z,101476.22
2022-10-17T11:25:59.063Z,101267.16
2022-10-17T11:28:25.958Z,101420.63
2022-10-17T11:31:03.318Z,101410.72
2022-10-17T11:33:54.643Z,101498.44
2022-10-17T11:36:26.128Z,101416.31
2022-10-17T11:38:59.730Z,101492.59
2022-10-17T11:41:41.718Z,101486.72
2022-10-17T11:44:36.401Z,101477.34
2022-10-17T11:47:20.858Z,101422.00
2022-10-17T11:49:52.242Z,101481.59
2022-10-17T11:52:57.173Z,101492.59
2022-10-17T11:55:27.386Z,101164.91
2022-10-17T11:58:20.510Z,101457.03
2022-10-17T12:00:55.877Z,101493.66
2022-10-17T12:03:35.206Z,101198.06
2022-10-17T12:06:32.832Z,101504.31
2022-10-17T12:09:28.342Z,101226.09
2022-10-17T12:11:58.058Z,101519.06
2022-10-17T12:14:34.021Z,101513.94
2022-10-17T12:17:02.287Z,101377.06
2022-10-17T12:19:32.845Z,101287.28
2022-10-17T12:22:07.693Z,101249.31
2022-10-17T12:24:36.130Z,101446.59
2022-10-17T12:27:28.025Z,101513.72
2022-10-17T12:30:17.084Z,101509.44
2022-10-17T12:33:08.074Z,101269.91
2022-10-17T12:36:13.991Z,101062.91
2022-10-17T12:38:40.896Z,101413.41
2022-10-17T12:41:07.545Z,101318.72
2022-10-17T12:43:48.296Z,101235.63
2022-10-17T12:46:51.224Z,101395.19
2022-10-17T12:49:45.786Z,101537.53
2022-10-17T12:52:25.974Z,101518.53
2022-10-17T12:55:14.787Z,101543.69
2022-10-17T12:58:00.051Z,101543.41
2022-10-17T13:00:49.829Z,101315.53
2022-10-17T13:03:30.465Z,101229.78
2022-10-17T13:06:04.747Z,101309.91
2022-10-17T13:08:37.760Z,101422.75
2022-10-17T13:11:06.897Z,101327.03
2022-10-17T13:13:39.260Z,101550.38
2022-10-17T13:16:06.082Z,101466.59
2022-10-17T13:18:33.360Z,101134.78
2022-10-17T13:21:15.199Z,101361.75
2022-10-17T13:23:42.148Z,101381.75
2022-10-17T13:26:20.347Z,101580.06
2022-10-17T13:29:15.857Z,101521.41
2022-10-17T13:31:44.389Z,101563.72
2022-10-17T13:34:19.753Z,101347.72
2022-10-17T13:36:50.656Z,101400.38
2022-10-17T13:39:38.450Z,101297.91
2022-10-17T13:42:22.736Z,101164.78
2022-10-17T13:44:49.997Z,101477.22
2022-10-17T13:47:25.761Z,101593.16
2022-10-17T13:49:55.543Z,101245.56
2022-10-17T13:52:26.890Z,101462.50
2022-10-17T13:54:54.406Z,101360.31
2022-10-17T13:57:24.306Z,101263.78
2022-10-17T14:00:01.732Z,101426.69
2022-10-17T14:02:41.011Z,101525.97
2022-10-17T14:05:23.114Z,101589.16
2022-10-17T14:10:42.239Z,101592.13
2022-10-17T14:13:23.383Z,101482.69
2022-10-17T14:15:52.613Z,101188.53
2022-10-17T14:18:26.560Z,101498.22
2022-10-17T14:23:43.499Z,101465.31
2022-10-17T14:26:14.761Z,101289.66
2022-10-17T14:28:44.394Z,101578.19
2022-10-17T14:31:29.897Z,101589.97
2022-10-17T14:33:56.975Z,101246.84
2022-10-17T14:36:42.707Z,101463.41
2022-10-17T14:39:23.836Z,101612.47
2022-10-17T14:41:54.964Z,101347.50
2022-10-17T14:44:26.933Z,101618.59
2022-10-17T14:47:18.260Z,101510.66
2022-10-17T14:50:03.760Z,101503.69
2022-10-17T14:52:32.624Z,101633.84
2022-10-17T14:55:12.045Z,101638.09
2022-10-17T14:57:46.852Z,101637.31
2022-10-17T15:00:16.010Z,101638.38
2022-10-17T15:02:43.785Z,101544.88
2022-10-17T15:05:13.213Z,101317.34
2022-10-17T15:07:41.075Z,101387.78
2022-10-17T15:10:24.368Z,101649.88
2022-10-17T15:12:58.877Z,101521.84
2022-10-17T15:15:30.543Z,101646.94
2022-10-17T15:17:57.314Z,101563.03
2022-10-17T15:20:29.484Z,101508.59
2022-10-17T15:22:59.816Z,101661.84
2022-10-17T15:25:27.928Z,101225.06
2022-10-17T15:27:54.871Z,101374.91
2022-10-17T15:30:24.772Z,101546.97
2022-10-17T15:32:52.096Z,101470.69
2022-10-17T15:35:19.765Z,101526.28
2022-10-17T15:37:46.984Z,101580.13
2022-10-17T15:40:24.362Z,101547.09
2022-10-17T15:42:51.797Z,101668.66
2022-10-17T15:45:21.551Z,101676.94
2022-10-17T15:48:04.291Z,101684.91
2022-10-17T15:50:30.990Z,101548.81
2022-10-17T15:52:57.616Z,101612.91
2022-10-17T15:55:24.572Z,101587.38
2022-10-17T15:57:51.228Z,101482.41
2022-10-17T16:00:23.494Z,101575.97
2022-10-17T16:02:52.479Z,101445.25
2022-10-17T16:05:25.698Z,101550.31
2022-10-17T16:07:53.870Z,101723.81
2022-10-17T16:10:21.138Z,101303.00
2022-10-17T16:12:49.857Z,101580.47
2022-10-17T16:15:18.493Z,101731.19
2022-10-17T16:17:45.288Z,101539.53
2022-10-17T16:20:12.958Z,101746.06
2022-10-17T16:22:43.865Z,101555.78
2022-10-17T16:25:27.535Z,101765.38
2022-10-17T16:27:56.913Z,101766.56
2022-10-17T16:30:25.937Z,101519.69
2022-10-17T16:32:53.858Z,101377.97
2022-10-17T16:35:33.126Z,101486.66
2022-10-17T16:38:03.877Z,101518.34
2022-10-17T16:40:30.472Z,101474.59
2022-10-17T16:42:57.967Z,101779.53
2022-10-17T16:45:24.583Z,101494.13
2022-10-17T16:47:53.813Z,101523.78
2022-10-17T16:50:20.639Z,101723.41
2022-10-17T16:52:47.341Z,101459.09
2022-10-17T16:55:14.160Z,101758.22
2022-10-17T17:00:16.099Z,101614.94
2022-10-17T17:02:42.867Z,101798.56
2022-10-17T17:05:09.662Z,101738.72
2022-10-17T17:07:37.048Z,101650.19
2022-10-17T17:10:04.789Z,101612.13
2022-10-17T17:12:33.450Z,101644.59
2022-10-17T17:15:00.111Z,101520.13
2022-10-17T17:17:44.522Z,101671.13
2022-10-17T17:20:13.811Z,101356.88
2022-10-17T17:22:40.367Z,101573.75
2022-10-17T17:25:07.407Z,101629.34
2022-10-17T17:27:34.856Z,101641.00
2022-10-17T17:30:01.645Z,101817.59
2022-10-17T17:32:28.224Z,101406.59
2022-10-17T17:34:55.700Z,101671.56
2022-10-17T17:37:22.256Z,101626.00
2022-10-17T17:39:48.921Z,101550.81
2022-10-17T17:42:15.464Z,101698.69
2022-10-17T17:44:42.034Z,101657.47
2022-10-17T17:47:08.722Z,101737.47
2022-10-17T17:49:36.129Z,101539.00
2022-10-17T17:54:38.554Z,101822.41
2022-10-17T17:57:07.541Z,101820.78
2022-10-17T17:59:34.195Z,101516.16
2022-10-17T18:02:02.745Z,101743.38
2022-10-17T18:04:29.406Z,101746.13
2022-10-17T18:06:55.998Z,101761.16
2022-10-17T18:09:23.575Z,101661.59
2022-10-17T18:11:51.204Z,101686.50
2022-10-17T18:14:19.155Z,101617.31
2022-10-17T18:16:45.825Z,101400.38
2022-10-17T18:19:12.498Z,101667.22
2022-10-17T18:21:39.168Z,101413.72
2022-10-17T18:24:06.191Z,101796.25
2022-10-17T18:26:33.922Z,101539.69
2022-10-17T18:29:00.694Z,101699.44
2022-10-17T18:31:35.503Z,101351.28
2022-10-17T18:34:04.163Z,101848.94
2022-10-17T18:36:32.195Z,101719.97
2022-10-17T18:39:00.243Z,101485.94
2022-10-17T18:41:27.744Z,101855.31
2022-10-17T18:43:55.477Z,101447.44
2022-10-17T18:46:27.815Z,101745.69
2022-10-17T18:48:55.113Z,101331.91
2022-10-17T18:51:24.197Z,101739.81
2022-10-17T18:53:53.840Z,101860.59
2022-10-17T18:56:21.973Z,101871.00
2022-10-17T18:58:48.847Z,101873.66
2022-10-17T19:01:20.868Z,101478.31
2022-10-17T19:03:49.409Z,101733.97
2022-10-17T19:06:18.320Z,101800.53
2022-10-17T19:08:46.758Z,101877.06
2022-10-17T19:11:19.319Z,101618.81
2022-10-17T19:13:46.945Z,101675.88
2022-10-17T19:16:17.178Z,101585.25
2022-10-17T19:18:50.889Z,101691.00
2022-10-17T19:21:21.646Z,101659.91
2022-10-17T19:23:54.855Z,101809.34
2022-10-17T19:26:22.857Z,101889.00
2022-10-17T19:28:53.305Z,101590.72
2022-10-17T19:31:27.309Z,101693.84
2022-10-17T19:33:56.003Z,101534.94
2022-10-17T19:36:28.814Z,101902.34
2022-10-17T19:38:59.041Z,101537.56
2022-10-17T19:41:26.108Z,101564.53
2022-10-17T19:43:53.376Z,101689.56
2022-10-17T19:46:22.861Z,101632.13
2022-10-17T19:48:52.054Z,101647.06
2022-10-17T19:51:21.027Z,101612.03
2022-10-17T19:53:49.631Z,101698.47
2022-10-17T19:56:18.610Z,101737.97
2022-10-17T19:58:46.627Z,101426.84
2022-10-17T20:01:19.164Z,101732.38
2022-10-17T20:03:46.457Z,101650.44
2022-10-17T20:06:13.346Z,101704.88
2022-10-17T20:08:41.109Z,101919.41
2022-10-17T20:11:12.471Z,101920.91
2022-10-17T20:13:39.508Z,101804.47
2022-10-17T20:16:08.068Z,101927.75
2022-10-17T20:18:35.518Z,101462.31
2022-10-17T20:21:04.925Z,101924.88
2022-10-17T20:23:31.638Z,101863.72
2022-10-17T20:26:13.180Z,101921.84
2022-10-17T20:28:49.934Z,101687.59
2022-10-17T20:31:17.283Z,101797.72
2022-10-17T20:33:43.953Z,101548.00
2022-10-17T20:36:12.869Z,101726.47
2022-10-17T20:38:39.568Z,101691.38
2022-10-17T20:41:10.173Z,101890.59
2022-10-17T20:43:38.335Z,101701.09
2022-10-17T20:46:22.814Z,101830.56
2022-10-17T20:48:52.424Z,101904.75
2022-10-17T20:51:20.255Z,101883.50
2022-10-17T20:53:47.544Z,101609.81
2022-10-17T20:56:23.385Z,101875.31
2022-10-17T20:58:55.192Z,101945.13
2022-10-17T21:01:23.068Z,101760.66
2022-10-17T21:03:51.721Z,101808.19
2022-10-17T21:06:18.886Z,101951.47
2022-10-17T21:08:46.936Z,101858.84
2022-10-17T21:11:19.910Z,101832.53
2022-10-17T21:13:47.908Z,101940.34
2022-10-17T21:16:17.481Z,101814.56
2022-10-17T21:18:44.503Z,101895.28
2022-10-17T21:21:21.467Z,101894.53
2022-10-17T21:23:50.601Z,101948.75
2022-10-17T21:26:18.125Z,101968.97
2022-10-17T21:28:47.357Z,101956.97
2022-10-17T21:31:17.689Z,101956.97
2022-10-17T21:33:46.774Z,101965.19
2022-10-17T21:36:16.768Z,101795.22
2022-10-17T21:38:46.066Z,101971.84
2022-10-17T21:41:14.233Z,101568.84
2022-10-17T21:43:42.740Z,101881.50
2022-10-17T21:46:12.591Z,101961.19
2022-10-17T21:48:40.018Z,101916.47
2022-10-17T21:51:09.420Z,101960.91
2022-10-17T21:53:38.045Z,101767.72
2022-10-17T21:56:08.165Z,101662.09
2022-10-17T21:58:34.940Z,101847.19
2022-10-17T22:01:07.739Z,101668.19
2022-10-17T22:03:42.690Z,101881.28
2022-10-17T22:06:37.628Z,101930.38
2022-10-17T22:09:03.460Z,101972.53
2022-10-17T22:11:32.205Z,101702.88
2022-10-17T22:14:07.031Z,101689.13
2022-10-17T22:16:34.211Z,101976.72
2022-10-17T22:19:05.935Z,101942.63
2022-10-17T22:21:35.880Z,101908.72
2022-10-17T22:24:05.633Z,101864.06
2022-10-17T22:26:36.454Z,101796.63
2022-10-17T22:29:04.976Z,101772.75
2022-10-17T22:31:32.268Z,101642.97
2022-10-17T22:33:59.282Z,101917.75
2022-10-17T22:36:25.880Z,101972.09
2022-10-17T22:38:53.640Z,101902.94
2022-10-17T22:41:20.904Z,101835.19
2022-10-17T22:43:47.531Z,101667.31
2022-10-17T22:46:16.240Z,101621.88
2022-10-17T22:48:43.600Z,101766.66
2022-10-17T22:51:10.839Z,101879.63
2022-10-17T22:53:37.758Z,101873.75
2022-10-17T22:56:12.009Z,101971.91
2022-10-17T22:58:39.315Z,101844.72
2022-10-17T23:01:07.553Z,101742.28
2022-10-17T23:03:34.925Z,101631.00
2022-10-17T23:06:02.320Z,101894.38
2022-10-17T23:08:29.016Z,101532.31
2022-10-17T23:10:55.796Z,101679.06
2022-10-17T23:13:23.189Z,101737.00
2022-10-17T23:15:54.547Z,101714.09
2022-10-17T23:18:23.346Z,101968.69
2022-10-17T23:20:50.356Z,101727.72
2022-10-17T23:23:17.298Z,101770.53
2022-10-17T23:25:44.450Z,101774.56
2022-10-17T23:28:11.556Z,101933.25
2022-10-17T23:30:39.088Z,101866.06
2022-10-17T23:33:06.956Z,101966.47
2022-10-17T23:35:35.486Z,101606.91
2022-10-17T23:38:02.236Z,101966.22
2022-10-17T23:40:29.775Z,101644.75
2022-10-17T23:42:56.472Z,101903.06
2022-10-17T23:45:23.168Z,101891.72
2022-10-17T23:47:50.632Z,101727.50
2022-10-17T23:50:17.289Z,101497.31
2022-10-17T23:52:45.366Z,101722.84
2022-10-17T23:55:12.081Z,101958.63
2022-10-17T23:57:38.823Z,101799.88
